Rona II — MPKR2 — position and weather

sailwx.info

Track history (hours):
 
Tides and Currents Weather Stations Pressure Air Temp Water Temp Dewpoint Dewpoint Depression Visibility Wind Speed Wind Dir Waves Ship Positions

Rona II

Last reported at 2017-May-09 16:00 UTC. Time now 2017-May-28 10:27 UTC.
Position N 27°54' W 015°21'.
Warning: this ship's position is 18 days out of date.

Length 22 m.

Type: Sailing vessel. MMSI: 232714000.

Date/timePositionNaut miles runAvg speedWind from/ knotsBaromVisibWave heightAir tempDewpointWater temp
2017-May-09 16:00N 27°54' W 015°21'3 6.4
2017-May-09 15:29N 27°57' W 015°21'3 6.0
2017-May-09 14:58N 27°60' W 015°22'6 5.9
2017-May-09 13:58N 28°06' W 015°24'3 5.3
2017-May-09 13:27N 28°08' W 015°25'0 0.3
2017-May-09 12:58N 28°08' W 015°25'0 0.0
2017-May-09 12:28N 28°08' W 015°25'0 0.0
2017-May-09 11:58N 28°08' W 015°25'0 0.0
2017-May-09 11:28N 28°08' W 015°25'0 0.0
2017-May-09 10:58N 28°08' W 015°25'0 0.0
2017-May-09 10:28N 28°08' W 015°25'  
2017-May-06 19:47N 28°52' W 013°41'2 7.0
2017-May-06 19:27N 28°53' W 013°39'3 6.6
2017-May-06 19:00N 28°55' W 013°36'  
2017-May-01 18:52N 37°45' W 008°56'3 9.0
2017-May-01 18:30N 37°47' W 008°54'1 2.8
2017-May-01 17:59N 37°47' W 008°55'1 1.6
2017-May-01 17:30N 37°47' W 008°54'2 4.4
2017-May-01 17:00N 37°48' W 008°52'3 6.6
2017-May-01 16:30N 37°50' W 008°49'3 6.8
2017-May-01 16:00N 37°54' W 008°49'3 5.7
2017-May-01 15:30N 37°55' W 008°51'  
Track history (hours):
 
Tides and Currents Weather Stations Pressure Air Temp Water Temp Dewpoint Dewpoint Depression Visibility Wind Speed Wind Dir Waves Ship Positions

Rona II

Last reported at 2017-May-09 16:00 UTC. Time now 2017-May-28 10:27 UTC.
Position N 27°54' W 015°21'.
Warning: this ship's position is 18 days out of date.

Length 22 m.

Type: Sailing vessel. MMSI: 232714000.

Date/timePositionNaut miles runAvg speedWind from/ knotsBaromVisibWave heightAir tempDewpointWater temp
2017-May-09 16:00N 27°54' W 015°21'3 6.4
2017-May-09 15:29N 27°57' W 015°21'3 6.0
2017-May-09 14:58N 27°60' W 015°22'6 5.9
2017-May-09 13:58N 28°06' W 015°24'3 5.3
2017-May-09 13:27N 28°08' W 015°25'0 0.3
2017-May-09 12:58N 28°08' W 015°25'0 0.0
2017-May-09 12:28N 28°08' W 015°25'0 0.0
2017-May-09 11:58N 28°08' W 015°25'0 0.0
2017-May-09 11:28N 28°08' W 015°25'0 0.0
2017-May-09 10:58N 28°08' W 015°25'0 0.0
2017-May-09 10:28N 28°08' W 015°25'  
2017-May-06 19:47N 28°52' W 013°41'2 7.0
2017-May-06 19:27N 28°53' W 013°39'3 6.6
2017-May-06 19:00N 28°55' W 013°36'  
2017-May-01 18:52N 37°45' W 008°56'3 9.0
2017-May-01 18:30N 37°47' W 008°54'1 2.8
2017-May-01 17:59N 37°47' W 008°55'1 1.6
2017-May-01 17:30N 37°47' W 008°54'2 4.4
2017-May-01 17:00N 37°48' W 008°52'3 6.6
2017-May-01 16:30N 37°50' W 008°49'3 6.8
2017-May-01 16:00N 37°54' W 008°49'3 5.7
2017-May-01 15:30N 37°55' W 008°51'  

Dump ship's entire track history